Time;durP1;ratioP1;P1;durP2;ratioP2;P2;SDS_P1;SDS_P2;PMS_P1;PMS_P2;Temp;Humidity;BMP_temperature;BMP_pressure;BME280_temperature;BME280_humidity;BME280_pressure;Samples;Min_cycle;Max_cycle;Signal;HPM_P1;HPM_P2
2021/05/02 07:56:52;;;;;;;1.93;1.83;;;;;;;23.06;54.24;98247.50;21081870;27;20798;-67
2021/05/02 08:06:54;;;;;;;14.40;12.90;;;;;;;21.86;43.80;98263.69;20994680;28;20220;-70
2021/05/02 08:16:56;;;;;;;10.03;9.03;;;;;;;22.20;44.51;98271.78;20991457;28;20268;-69
2021/05/02 08:26:58;;;;;;;7.10;5.73;;;;;;;22.77;45.51;98284.19;20984850;28;20211;-70
2021/05/02 08:37:00;;;;;;;5.13;4.57;;;;;;;22.99;46.21;98298.91;20998632;28;20688;-69
2021/05/02 08:47:02;;;;;;;3.87;3.67;;;;;;;23.10;46.82;98316.72;20962231;28;20217;-69
2021/05/02 08:57:05;;;;;;;4.53;3.60;;;;;;;23.19;47.13;98321.63;20976696;28;20266;-69
2021/05/02 09:07:14;;;;;;;2.90;2.70;;;;;;;23.38;47.46;98322.88;20955035;28;20696;-68
2021/05/02 09:17:22;;;;;;;2.73;2.60;;;;;;;23.56;47.16;98341.56;20933643;28;20607;-67
2021/05/02 09:27:24;;;;;;;2.80;2.50;;;;;;;23.59;47.48;98349.03;20916721;28;20279;-68
2021/05/02 09:37:32;;;;;;;2.00;1.90;;;;;;;23.63;47.62;98355.50;20951088;28;20574;-67
2021/05/02 09:47:34;;;;;;;3.20;1.70;;;;;;;23.69;47.74;98360.00;20973093;28;20220;-66
2021/05/02 09:57:37;;;;;;;2.03;1.90;;;;;;;23.77;47.71;98365.09;20934150;28;20625;-67
2021/05/02 10:07:38;;;;;;;6.50;2.20;;;;;;;23.83;47.62;98366.94;20959528;28;20266;-67
2021/05/02 10:17:41;;;;;;;2.20;1.60;;;;;;;23.98;47.53;98370.34;20922577;28;20217;-66
2021/05/02 10:27:47;;;;;;;2.30;1.90;;;;;;;23.93;46.87;98372.69;20922798;28;20633;-67
2021/05/02 10:37:53;;;;;;;2.70;1.60;;;;;;;23.98;47.15;98374.75;20906904;28;20255;-67
2021/05/02 10:47:55;;;;;;;1.50;1.40;;;;;;;23.93;47.29;98391.00;20892868;28;20236;-66
2021/05/02 10:58:04;;;;;;;2.03;1.43;;;;;;;23.80;47.98;98388.28;20912039;28;20224;-67
2021/05/02 11:08:08;;;;;;;1.53;1.33;;;;;;;23.85;47.57;98391.13;20910620;28;20258;-67
2021/05/02 11:18:23;;;;;;;1.57;1.47;;;;;;;23.95;47.73;98396.88;20896887;28;20217;-66
2021/05/02 11:28:34;;;;;;;1.30;1.20;;;;;;;24.51;46.89;98395.09;20894953;28;20254;-67
2021/05/02 11:38:45;;;;;;;1.77;1.10;;;;;;;24.48;46.93;98392.88;20923459;28;20266;-65
2021/05/02 11:48:48;;;;;;;1.77;1.20;;;;;;;24.25;47.74;98398.34;20937031;28;20254;-66
2021/05/02 11:58:51;;;;;;;4.40;1.10;;;;;;;24.13;47.84;98399.84;20937505;28;20281;-67
2021/05/02 12:08:53;;;;;;;1.13;1.03;;;;;;;24.18;48.00;98381.75;20935898;28;20216;-66
2021/05/02 12:18:56;;;;;;;1.30;1.03;;;;;;;24.63;47.31;98380.47;20934847;28;20213;-66
2021/05/02 12:28:58;;;;;;;1.43;1.33;;;;;;;24.59;47.85;98390.53;20950612;28;20930;-65
2021/05/02 12:39:05;;;;;;;3.13;1.20;;;;;;;24.33;48.72;98405.25;20943683;28;20216;-66
2021/05/02 12:49:17;;;;;;;1.10;1.00;;;;;;;24.64;48.02;98406.47;20963499;28;20212;-66
2021/05/02 12:59:40;;;;;;;1.40;1.20;;;;;;;24.51;48.46;98397.72;20930210;28;20273;-66
2021/05/02 13:09:42;;;;;;;1.40;1.30;;;;;;;24.47;48.76;98402.53;20919146;28;20220;-67
2021/05/02 13:19:46;;;;;;;3.37;2.30;;;;;;;24.43;48.60;98396.03;20971495;28;20223;-66
2021/05/02 13:29:47;;;;;;;3.63;1.40;;;;;;;24.42;49.09;98389.19;20962426;28;20224;-66
2021/05/02 13:39:50;;;;;;;7.20;1.57;;;;;;;24.55;48.68;98397.13;20937559;28;20213;-66
2021/05/02 13:49:51;;;;;;;2.10;1.60;;;;;;;24.58;48.64;98388.88;20946288;28;20636;-66
2021/05/02 13:59:54;;;;;;;6.00;4.90;;;;;;;24.20;41.81;98395.47;20937058;28;20572;-66
2021/05/02 14:09:56;;;;;;;5.47;3.73;;;;;;;24.35;43.54;98393.59;20934219;28;20221;-67
2021/05/02 14:19:58;;;;;;;4.57;3.53;;;;;;;24.39;44.41;98400.06;20943083;28;20213;-67
2021/05/02 14:30:00;;;;;;;7.20;4.17;;;;;;;24.49;44.61;98389.25;20955366;28;20369;-67
2021/05/02 14:40:02;;;;;;;7.57;4.03;;;;;;;24.41;45.29;98390.22;20941940;28;20205;-66
2021/05/02 14:50:05;;;;;;;12.37;11.37;;;;;;;24.47;45.52;98401.72;20960762;28;20220;-69
2021/05/02 15:00:10;;;;;;;12.80;11.80;;;;;;;24.53;45.79;98400.97;20940275;28;20338;-68
2021/05/02 15:10:12;;;;;;;10.10;9.00;;;;;;;24.58;46.22;98404.59;20951853;28;20270;-68
2021/05/02 15:20:15;;;;;;;14.00;6.67;;;;;;;24.52;46.51;98418.50;20924184;28;20208;-67
2021/05/02 15:30:18;;;;;;;7.77;5.63;;;;;;;24.53;46.68;98435.81;20914787;28;20224;-66
2021/05/02 15:40:21;;;;;;;4.20;4.00;;;;;;;24.54;46.69;98442.69;20928031;28;20252;-67
2021/05/02 15:50:22;;;;;;;8.40;4.27;;;;;;;24.56;47.07;98452.97;20909881;28;20265;-68
2021/05/02 16:00:25;;;;;;;4.10;3.80;;;;;;;24.54;46.83;98458.41;20930664;28;20235;-68
2021/05/02 16:10:27;;;;;;;5.10;3.27;;;;;;;24.49;47.47;98468.66;20938373;28;20259;-69
2021/05/02 16:20:29;;;;;;;4.27;3.43;;;;;;;24.45;47.53;98472.66;20954136;28;20669;-69
2021/05/02 16:30:31;;;;;;;3.30;2.47;;;;;;;24.42;47.73;98473.03;20947230;28;20301;-67
2021/05/02 16:40:34;;;;;;;5.17;3.30;;;;;;;24.38;47.97;98482.25;20941984;28;20640;-66
2021/05/02 16:50:35;;;;;;;6.73;3.40;;;;;;;24.39;47.84;98472.59;20950766;28;20330;-66
2021/05/02 17:00:38;;;;;;;3.80;2.87;;;;;;;24.35;48.06;98495.72;20944590;28;20678;-71
2021/05/02 17:10:40;;;;;;;6.00;4.03;;;;;;;22.13;31.37;98505.81;20948082;28;20247;-69
2021/05/02 17:20:43;;;;;;;3.80;3.50;;;;;;;22.66;33.84;98514.53;20939542;28;20646;-68
2021/05/02 17:30:44;;;;;;;4.43;4.13;;;;;;;22.96;36.29;98524.84;20954074;28;20336;-71
2021/05/02 17:40:47;;;;;;;4.17;3.87;;;;;;;23.11;38.15;98530.06;20919598;28;20274;-74
2021/05/02 17:50:48;;;;;;;4.30;3.90;;;;;;;23.19;39.45;98538.63;20994451;28;20228;-73
2021/05/02 18:00:51;;;;;;;4.80;4.37;;;;;;;23.27;40.23;98543.84;20945550;28;20212;-70
2021/05/02 18:10:53;;;;;;;5.13;4.70;;;;;;;23.34;40.98;98554.38;20958889;28;20209;-72
2021/05/02 18:20:57;;;;;;;4.73;4.07;;;;;;;23.37;41.68;98559.25;20920785;28;20217;-72
2021/05/02 18:30:58;;;;;;;4.60;4.30;;;;;;;23.40;42.08;98585.03;20932551;28;20243;-70
2021/05/02 18:41:01;;;;;;;4.90;4.40;;;;;;;23.43;42.81;98597.75;20934518;28;20294;-72
2021/05/02 18:51:03;;;;;;;4.63;4.23;;;;;;;23.41;43.35;98613.63;20919243;28;20221;-72
2021/05/02 19:01:06;;;;;;;4.43;4.03;;;;;;;23.41;43.60;98623.28;20931588;28;20281;-80
2021/05/02 19:11:08;;;;;;;4.90;4.60;;;;;;;23.40;43.87;98638.16;20940144;28;20228;-70
2021/05/02 19:21:10;;;;;;;4.10;3.70;;;;;;;23.40;44.18;98655.66;20927151;28;20224;-70
2021/05/02 19:31:13;;;;;;;4.57;4.13;;;;;;;23.40;44.48;98666.09;20951948;28;20220;-72
2021/05/02 19:41:16;;;;;;;5.50;4.10;;;;;;;23.39;44.69;98693.28;20926215;28;20266;-72
2021/05/02 19:51:18;;;;;;;11.90;4.90;;;;;;;23.39;44.88;98693.28;20930278;28;20212;-74
2021/05/02 20:01:20;;;;;;;4.50;4.20;;;;;;;23.39;44.99;98706.34;20951150;28;20216;-72
2021/05/02 20:11:23;;;;;;;6.43;4.67;;;;;;;23.38;44.92;98707.31;20896488;28;20260;-69
2021/05/02 20:21:25;;;;;;;4.63;4.33;;;;;;;23.40;45.17;98713.19;20922159;28;20225;-70
2021/05/02 20:31:27;;;;;;;4.80;4.40;;;;;;;23.40;45.54;98721.88;20934132;28;20285;-69
2021/05/02 20:41:29;;;;;;;4.10;3.80;;;;;;;23.40;45.62;98721.03;20926291;28;20343;-68
2021/05/02 20:51:33;;;;;;;3.97;3.67;;;;;;;23.39;45.50;98720.22;20931285;28;20220;-68
2021/05/02 21:01:35;;;;;;;4.03;3.83;;;;;;;23.39;45.29;98729.88;20953286;28;20212;-70
2021/05/02 21:11:38;;;;;;;4.70;4.10;;;;;;;23.40;45.97;98741.97;20936089;28;20225;-69
2021/05/02 21:21:40;;;;;;;4.33;4.07;;;;;;;23.39;45.59;98756.03;20923491;28;20205;-68
2021/05/02 21:31:44;;;;;;;5.27;4.87;;;;;;;23.37;45.78;98764.06;20931049;28;20256;-69
2021/05/02 21:41:47;;;;;;;4.50;4.10;;;;;;;23.36;45.93;98770.28;20927167;28;20204;-68
2021/05/02 21:51:49;;;;;;;4.43;4.13;;;;;;;23.35;45.81;98791.38;20961733;28;20285;-70
2021/05/02 22:01:51;;;;;;;6.40;4.67;;;;;;;23.33;46.00;98794.16;20936389;28;20286;-68
2021/05/02 22:11:53;;;;;;;5.70;4.60;;;;;;;23.31;46.49;98798.75;20952985;28;20239;-69
2021/05/02 22:21:56;;;;;;;8.30;5.57;;;;;;;23.31;47.01;98795.34;20954152;28;20250;-67
2021/05/02 22:31:57;;;;;;;6.07;5.47;;;;;;;23.31;46.94;98818.88;20958411;28;20285;-68
2021/05/02 22:42:00;;;;;;;5.57;5.07;;;;;;;23.30;47.25;98815.44;20932483;28;20213;-68
2021/05/02 22:52:01;;;;;;;6.03;5.43;;;;;;;23.27;47.31;98818.41;20931477;28;20651;-69
